Time;durP1;ratioP1;P1;durP2;ratioP2;P2;SDS_P1;SDS_P2;PMS_P1;PMS_P2;Temp;Humidity;BMP_temperature;BMP_pressure;BME280_temperature;BME280_humidity;BME280_pressure;Samples;Min_cycle;Max_cycle;Signal;HPM_P1;HPM_P2
2023/07/29 00:02:44;;;;;;;3.90;3.47;;;;;;;25.67;35.08;94935.47;6104351;28;109168;-58
2023/07/29 00:05:48;;;;;;;4.38;3.60;;;;;;;25.72;35.40;94936.41;6110452;28;109227;-61
2023/07/29 00:08:51;;;;;;;4.10;3.70;;;;;;;25.65;35.30;94937.72;6116544;28;109291;-60
2023/07/29 00:11:54;;;;;;;4.03;3.63;;;;;;;25.45;35.83;94941.22;6133502;28;109143;-60
2023/07/29 00:14:59;;;;;;;4.30;3.90;;;;;;;25.25;36.16;94942.78;6123986;28;110260;-60
2023/07/29 00:18:02;;;;;;;4.50;3.90;;;;;;;25.09;36.58;94947.16;6133905;28;109093;-65
2023/07/29 00:21:05;;;;;;;4.40;4.00;;;;;;;24.89;37.05;94950.63;6128792;28;109233;-61
2023/07/29 00:24:08;;;;;;;4.80;4.27;;;;;;;24.79;37.28;94943.75;6132726;28;108843;-60
2023/07/29 00:27:11;;;;;;;5.05;4.55;;;;;;;24.83;37.10;94936.63;6121323;28;110560;-60
2023/07/29 00:30:16;;;;;;;5.10;4.63;;;;;;;24.98;37.23;94935.28;6135223;28;109032;-60
2023/07/29 00:33:20;;;;;;;6.45;5.30;;;;;;;25.23;36.93;94941.56;6127559;28;109501;-60
2023/07/29 00:36:23;;;;;;;5.60;5.10;;;;;;;25.27;36.93;94937.09;6126656;28;110294;-60
2023/07/29 00:39:26;;;;;;;5.72;5.22;;;;;;;25.14;37.13;94935.47;6128694;28;111078;-61
2023/07/29 00:42:29;;;;;;;5.93;5.30;;;;;;;25.06;37.29;94937.91;6132477;28;109251;-60
2023/07/29 00:45:35;;;;;;;5.15;4.75;;;;;;;24.94;37.45;94929.03;6125176;28;110114;-60
2023/07/29 00:48:38;;;;;;;5.10;4.70;;;;;;;24.89;37.64;94924.66;6120554;28;109283;-59
2023/07/29 00:51:42;;;;;;;5.22;4.72;;;;;;;24.84;37.94;94922.16;6133013;28;110450;-59
2023/07/29 00:54:45;;;;;;;5.60;5.10;;;;;;;24.81;38.17;94924.69;6121528;28;110207;-60
2023/07/29 00:57:51;;;;;;;7.35;4.90;;;;;;;24.81;38.03;94919.34;6120337;28;108923;-60
2023/07/29 01:00:56;;;;;;;5.60;5.10;;;;;;;24.80;38.16;94923.91;6111939;28;110327;-60
2023/07/29 01:03:59;;;;;;;5.70;5.20;;;;;;;24.90;37.85;94918.19;6119989;28;110452;-61
2023/07/29 01:07:12;;;;;;;5.70;5.20;;;;;;;24.99;37.65;94918.09;6136991;28;109284;-60
2023/07/29 01:10:27;;;;;;;6.40;5.20;;;;;;;25.17;37.54;94921.41;6121521;28;109284;-60
2023/07/29 01:13:38;;;;;;;5.78;5.00;;;;;;;25.18;37.51;94917.63;6137060;28;109262;-59
2023/07/29 01:16:48;;;;;;;5.30;4.80;;;;;;;25.18;37.57;94920.31;6115434;28;109117;-58
2023/07/29 01:20:03;;;;;;;5.70;5.20;;;;;;;25.27;37.40;94921.81;6123280;28;109319;-59
2023/07/29 01:23:06;;;;;;;5.80;4.90;;;;;;;25.31;37.35;94925.41;6118353;28;108900;-59
2023/07/29 01:26:10;;;;;;;4.70;4.30;;;;;;;25.37;36.83;94920.63;6122966;28;109187;-59
2023/07/29 01:29:13;;;;;;;5.00;4.53;;;;;;;25.36;37.33;94922.53;6117170;28;109085;-58
2023/07/29 01:32:26;;;;;;;5.00;4.40;;;;;;;25.39;36.97;94918.44;6108410;28;109484;-58
2023/07/29 01:35:36;;;;;;;4.70;4.20;;;;;;;25.40;36.66;94924.56;6125353;28;109304;-58
2023/07/29 01:38:41;;;;;;;4.57;3.70;;;;;;;25.42;36.40;94919.66;6118205;28;109096;-58
2023/07/29 01:41:47;;;;;;;3.97;3.60;;;;;;;25.38;36.46;94923.00;6114787;28;109315;-59
2023/07/29 01:44:50;;;;;;;4.60;3.38;;;;;;;25.20;36.49;94916.19;6116400;28;110188;-58
2023/07/29 01:47:53;;;;;;;3.80;3.50;;;;;;;25.02;36.66;94915.53;6112486;28;109107;-58
2023/07/29 01:50:57;;;;;;;3.70;3.40;;;;;;;25.05;36.81;94914.91;6113690;28;109214;-58
2023/07/29 01:54:00;;;;;;;3.53;3.22;;;;;;;25.18;36.57;94918.41;6116983;28;109264;-58
2023/07/29 01:57:04;;;;;;;3.47;3.17;;;;;;;25.20;36.69;94921.53;6102022;28;109109;-59
2023/07/29 02:00:09;;;;;;;3.80;3.50;;;;;;;25.16;36.64;94923.31;6116283;28;109835;-58
2023/07/29 02:03:12;;;;;;;3.85;3.50;;;;;;;25.15;36.48;94920.97;6135648;28;109313;-59
2023/07/29 02:06:15;;;;;;;4.03;3.63;;;;;;;24.98;36.72;94920.00;6126565;28;109230;-59
2023/07/29 02:09:18;;;;;;;4.03;3.72;;;;;;;25.01;36.86;94923.91;6128655;28;109225;-59
2023/07/29 02:12:22;;;;;;;3.78;3.47;;;;;;;24.95;37.00;94917.19;6132815;28;109339;-58
2023/07/29 02:15:26;;;;;;;4.40;4.00;;;;;;;24.85;37.21;94928.28;6102817;28;109303;-58
2023/07/29 02:18:29;;;;;;;5.10;4.60;;;;;;;24.87;37.29;94924.19;6125947;28;109442;-59
2023/07/29 02:21:32;;;;;;;4.80;4.40;;;;;;;24.91;37.29;94941.16;6117317;28;109190;-60
2023/07/29 02:24:35;;;;;;;6.10;5.00;;;;;;;24.94;37.17;94929.81;6121426;28;109120;-61
2023/07/29 02:27:39;;;;;;;5.20;4.70;;;;;;;24.89;37.20;94930.00;6112938;28;109288;-64
2023/07/29 02:30:44;;;;;;;6.03;4.65;;;;;;;24.98;37.13;94935.28;6107310;28;110133;-60
2023/07/29 02:33:47;;;;;;;4.18;3.80;;;;;;;25.05;36.79;94936.34;6125096;28;109253;-60
2023/07/29 02:36:50;;;;;;;4.40;4.00;;;;;;;25.01;36.78;94929.25;6110879;28;109239;-60
2023/07/29 02:39:53;;;;;;;4.30;3.90;;;;;;;24.92;36.91;94937.38;6124000;28;110168;-60
2023/07/29 02:42:58;;;;;;;4.70;3.92;;;;;;;24.70;37.38;94924.31;6121320;28;109178;-60
2023/07/29 02:46:01;;;;;;;4.15;3.85;;;;;;;24.70;37.41;94930.44;6126861;28;109160;-59
2023/07/29 02:49:05;;;;;;;5.17;3.80;;;;;;;24.93;36.85;94922.09;6111425;28;109307;-59
2023/07/29 02:52:08;;;;;;;4.10;3.70;;;;;;;25.05;36.86;94927.53;6127807;28;110102;-59
2023/07/29 02:55:11;;;;;;;4.38;3.97;;;;;;;25.03;36.95;94925.19;6111865;28;109123;-65
2023/07/29 02:58:16;;;;;;;4.30;3.90;;;;;;;25.13;36.58;94921.31;6111134;28;109261;-60
2023/07/29 03:01:19;;;;;;;4.68;3.80;;;;;;;25.16;36.74;94927.88;6104115;28;108817;-59
2023/07/29 03:04:23;;;;;;;3.88;3.58;;;;;;;25.20;36.68;94932.25;6107562;28;109747;-59
2023/07/29 03:07:26;;;;;;;4.00;3.60;;;;;;;25.20;36.50;94940.28;6134049;28;110124;-59
2023/07/29 03:10:29;;;;;;;3.78;3.47;;;;;;;25.20;36.63;94942.97;6129210;28;109296;-60
2023/07/29 03:13:34;;;;;;;4.20;3.28;;;;;;;25.13;36.68;94941.94;6115157;28;109129;-59
2023/07/29 03:16:37;;;;;;;9.50;8.60;;;;;;;25.13;36.75;94944.63;6122318;28;109892;-60
2023/07/29 03:19:40;;;;;;;17.60;15.80;;;;;;;25.17;36.74;94948.19;6128109;28;109077;-59
2023/07/29 03:22:43;;;;;;;13.75;12.70;;;;;;;25.21;37.10;94952.59;6118085;28;109618;-60
2023/07/29 03:25:50;;;;;;;16.95;15.55;;;;;;;25.20;37.16;94952.91;6117512;28;111626;-60
2023/07/29 03:28:55;;;;;;;15.57;14.37;;;;;;;25.25;36.86;94953.50;6128641;28;109226;-59
2023/07/29 03:31:58;;;;;;;10.15;9.35;;;;;;;25.21;37.07;94949.13;6117646;28;110057;-59
2023/07/29 03:35:01;;;;;;;8.30;7.60;;;;;;;25.13;37.39;94948.09;6134352;28;109130;-59
2023/07/29 03:38:04;;;;;;;16.20;14.80;;;;;;;25.17;37.53;94954.34;6115773;28;111681;-60
2023/07/29 03:41:09;;;;;;;15.40;14.07;;;;;;;25.08;37.68;94951.75;6111940;28;108790;-60
2023/07/29 03:44:14;;;;;;;37.50;34.30;;;;;;;25.06;38.17;94958.53;6108796;28;109370;-60
2023/07/29 03:47:17;;;;;;;35.70;32.70;;;;;;;25.07;38.34;94970.81;6109981;28;109138;-62
2023/07/29 03:50:20;;;;;;;19.20;17.40;;;;;;;25.04;38.45;94960.78;6103291;28;109252;-61
2023/07/29 03:53:23;;;;;;;13.60;12.40;;;;;;;24.89;38.95;94962.13;6116828;28;109399;-60
2023/07/29 03:56:26;;;;;;;18.53;16.63;;;;;;;24.85;39.26;94963.88;6118743;28;109175;-60
2023/07/29 03:59:31;;;;;;;13.15;11.85;;;;;;;24.81;39.20;94954.91;6131063;28;109096;-60
2023/07/29 04:02:34;;;;;;;14.38;12.70;;;;;;;24.74;39.81;94963.47;6113964;28;109249;-61
2023/07/29 04:05:38;;;;;;;13.40;12.20;;;;;;;24.65;39.75;94964.59;6116629;28;109385;-61
2023/07/29 04:08:42;;;;;;;15.45;14.15;;;;;;;24.65;39.61;94964.59;6119137;28;109385;-62
2023/07/29 04:11:45;;;;;;;48.63;44.47;;;;;;;24.72;39.83;94964.91;6116956;28;109231;-65
2023/07/29 04:14:50;;;;;;;14.52;13.23;;;;;;;24.66;40.05;94958.91;6125703;28;109517;-61
2023/07/29 04:17:53;;;;;;;14.60;13.30;;;;;;;24.69;39.96;94965.53;6115042;28;109279;-60
2023/07/29 04:20:56;;;;;;;12.23;11.13;;;;;;;24.75;39.98;94970.41;6113838;28;109269;-61
2023/07/29 04:23:59;;;;;;;14.95;11.60;;;;;;;24.72;39.75;94968.38;6106905;28;109796;-60
2023/07/29 04:27:02;;;;;;;10.70;9.80;;;;;;;24.82;39.55;94969.88;6127081;28;108938;-60
2023/07/29 04:30:09;;;;;;;10.52;9.48;;;;;;;24.56;40.36;94967.34;6114200;28;109685;-60
2023/07/29 04:33:12;;;;;;;14.25;11.25;;;;;;;24.40;41.06;94964.41;6115219;28;109270;-61
2023/07/29 04:36:15;;;;;;;12.80;10.50;;;;;;;24.24;41.22;94966.06;6103383;28;109156;-61
2023/07/29 04:39:18;;;;;;;20.52;18.55;;;;;;;24.19;41.06;94961.69;6135207;28;109146;-62
2023/07/29 04:42:21;;;;;;;15.20;10.60;;;;;;;24.02;41.78;94963.63;6126773;28;109559;-68
2023/07/29 04:45:29;;;;;;;13.83;10.50;;;;;;;24.07;41.54;94963.47;6120949;28;110198;-69
2023/07/29 04:48:32;;;;;;;19.70;17.93;;;;;;;24.52;40.81;94968.28;6117118;28;109243;-64
2023/07/29 04:51:37;;;;;;;14.13;11.97;;;;;;;23.92;41.98;94969.28;6121308;28;109145;-67
2023/07/29 04:54:40;;;;;;;10.93;9.93;;;;;;;23.35;43.25;94969.53;6132669;28;109247;-68
2023/07/29 04:57:43;;;;;;;44.70;12.00;;;;;;;24.06;41.24;94980.59;6111743;28;108823;-67
2023/07/29 05:00:48;;;;;;;39.23;13.50;;;;;;;24.52;40.60;94981.66;6114513;28;109229;-69
2023/07/29 05:03:51;;;;;;;18.00;11.10;;;;;;;24.71;40.27;94969.47;6114286;28;109133;-70
2023/07/29 05:06:55;;;;;;;20.40;9.00;;;;;;;24.84;39.96;94982.94;6122602;28;109250;-68
2023/07/29 05:09:58;;;;;;;8.50;7.63;;;;;;;24.93;39.97;94978.31;6118222;28;109163;-68
2023/07/29 05:13:01;;;;;;;9.77;7.47;;;;;;;25.00;39.77;94990.06;6130945;28;109375;-68
2023/07/29 05:16:05;;;;;;;18.97;13.03;;;;;;;25.06;39.66;94988.00;6121123;28;109070;-69
2023/07/29 05:19:09;;;;;;;13.47;11.00;;;;;;;25.08;39.49;94991.13;6114713;28;109095;-69
2023/07/29 05:22:12;;;;;;;13.87;8.77;;;;;;;25.08;39.77;94991.91;6110106;28;109339;-66
2023/07/29 05:25:15;;;;;;;14.63;10.23;;;;;;;24.95;40.13;94992.16;6117095;28;109155;-68
2023/07/29 05:28:18;;;;;;;17.27;8.87;;;;;;;24.99;40.40;94990.38;6132296;28;109030;-67
2023/07/29 05:31:23;;;;;;;16.57;9.30;;;;;;;25.04;40.33;94992.91;6115913;28;110021;-63
2023/07/29 05:34:27;;;;;;;10.30;7.57;;;;;;;25.13;39.73;94990.16;6116022;28;108875;-69
2023/07/29 05:37:30;;;;;;;13.83;6.40;;;;;;;24.68;40.91;94996.88;6105273;28;110343;-69
2023/07/29 05:40:33;;;;;;;6.67;6.13;;;;;;;24.85;40.72;94995.19;6113648;28;110241;-70
2023/07/29 05:43:36;;;;;;;12.53;5.53;;;;;;;24.77;40.52;94994.16;6111392;28;111193;-70
2023/07/29 05:46:41;;;;;;;6.67;5.10;;;;;;;24.77;40.50;95000.28;6137765;28;109144;-67
2023/07/29 05:49:44;;;;;;;6.10;5.50;;;;;;;24.81;40.18;95005.00;6137893;28;109032;-65
2023/07/29 05:52:47;;;;;;;8.53;6.00;;;;;;;25.15;39.83;95009.34;6137661;28;109131;-65
2023/07/29 05:55:50;;;;;;;5.97;5.40;;;;;;;25.09;40.09;95006.88;6113989;28;109188;-65
2023/07/29 05:58:54;;;;;;;6.27;5.53;;;;;;;25.15;39.80;95004.00;6113839;28;109358;-65
2023/07/29 06:01:58;;;;;;;9.20;8.30;;;;;;;25.16;39.64;95002.88;6114000;28;109223;-66
2023/07/29 06:05:02;;;;;;;10.20;9.23;;;;;;;25.23;40.03;95003.16;6099399;28;109684;-65
2023/07/29 06:08:07;;;;;;;9.70;8.90;;;;;;;25.32;39.60;94999.28;6099040;28;109392;-65
2023/07/29 06:11:10;;;;;;;7.93;5.83;;;;;;;25.20;40.14;95004.56;6113169;28;110101;-65
2023/07/29 06:14:13;;;;;;;6.50;5.20;;;;;;;25.11;39.95;94997.72;6122588;28;109141;-65
2023/07/29 06:17:17;;;;;;;6.77;5.40;;;;;;;25.37;39.56;94991.09;6103197;28;110212;-70
2023/07/29 06:20:21;;;;;;;7.37;5.80;;;;;;;25.37;40.02;95003.69;6113587;28;109156;-66
2023/07/29 06:23:24;;;;;;;6.27;5.40;;;;;;;25.38;39.48;94998.03;6129154;28;109444;-66
2023/07/29 06:26:27;;;;;;;7.13;5.80;;;;;;;25.41;39.46;94987.75;6119564;28;109377;-65
2023/07/29 06:29:30;;;;;;;6.00;5.40;;;;;;;25.52;39.67;94989.69;6126766;28;109638;-64
2023/07/29 06:32:35;;;;;;;7.53;5.30;;;;;;;25.66;40.16;94984.84;6123334;28;109084;-66
2023/07/29 06:35:38;;;;;;;6.77;6.03;;;;;;;25.72;39.42;94990.00;6136985;28;109321;-65
2023/07/29 06:38:41;;;;;;;5.63;5.13;;;;;;;25.61;39.66;94979.69;6117418;28;109036;-65
2023/07/29 06:41:44;;;;;;;5.43;5.00;;;;;;;25.73;39.42;94986.22;6102879;28;109094;-65
2023/07/29 06:44:47;;;;;;;5.37;4.87;;;;;;;25.74;39.79;94971.69;6112836;28;109108;-65
2023/07/29 06:47:52;;;;;;;4.87;4.47;;;;;;;25.96;39.23;94965.94;6113148;28;110098;-65
2023/07/29 06:51:00;;;;;;;5.97;5.10;;;;;;;26.08;39.78;94966.00;6095271;28;110021;-65
2023/07/29 06:54:03;;;;;;;5.90;5.17;;;;;;;26.05;39.66;94968.56;6122200;28;111542;-65
2023/07/29 06:57:08;;;;;;;5.90;4.80;;;;;;;26.06;40.09;94970.91;6116669;28;109691;-65
2023/07/29 07:00:11;;;;;;;8.13;5.20;;;;;;;26.10;40.06;94968.34;6112929;28;109231;-60
2023/07/29 07:03:16;;;;;;;16.87;5.77;;;;;;;25.78;40.17;94964.56;6115015;28;109073;-60
2023/07/29 07:06:19;;;;;;;9.23;5.83;;;;;;;25.90;39.92;94964.59;6114349;28;109160;-61
2023/07/29 07:09:23;;;;;;;7.97;6.23;;;;;;;26.03;39.90;94963.50;6134486;28;110000;-60
2023/07/29 07:12:26;;;;;;;7.80;4.80;;;;;;;26.04;39.58;94962.38;6122915;28;109809;-63
2023/07/29 07:15:29;;;;;;;5.60;4.90;;;;;;;26.27;39.98;94968.91;6109578;28;109083;-61
2023/07/29 07:18:33;;;;;;;6.20;5.30;;;;;;;26.35;39.75;94969.91;6123447;28;109339;-60
2023/07/29 07:21:36;;;;;;;5.20;4.70;;;;;;;26.34;39.41;94967.56;6119112;28;109148;-60
2023/07/29 07:24:39;;;;;;;7.83;5.17;;;;;;;26.35;39.37;94969.13;6106801;28;109427;-60
2023/07/29 07:27:43;;;;;;;5.90;4.83;;;;;;;26.40;39.46;94964.34;6116691;28;109272;-62
2023/07/29 07:30:46;;;;;;;6.27;4.67;;;;;;;26.43;39.00;94965.56;6133130;28;109779;-62
2023/07/29 07:33:50;;;;;;;9.03;5.20;;;;;;;26.45;39.34;94958.75;6125937;28;110466;-62
2023/07/29 07:36:53;;;;;;;7.87;5.00;;;;;;;26.50;38.69;94963.88;6102969;28;109238;-61
2023/07/29 07:39:56;;;;;;;8.13;5.10;;;;;;;26.51;39.08;94965.44;6114854;28;111649;-61
2023/07/29 07:42:59;;;;;;;6.93;5.30;;;;;;;26.51;38.92;94953.94;6121358;28;109286;-61
2023/07/29 07:46:04;;;;;;;6.23;5.43;;;;;;;26.53;38.44;94962.44;6112220;28;109248;-62
2023/07/29 07:49:08;;;;;;;6.70;4.60;;;;;;;26.61;38.84;94958.84;6106659;28;109304;-60
2023/07/29 07:52:11;;;;;;;6.60;5.30;;;;;;;26.63;38.29;94959.34;6119366;28;108973;-61
2023/07/29 07:55:15;;;;;;;7.33;4.47;;;;;;;26.71;38.73;94955.72;6117036;28;109529;-60
2023/07/29 07:58:18;;;;;;;6.27;4.90;;;;;;;26.70;38.19;94961.44;6123498;28;109390;-60
2023/07/29 08:01:21;;;;;;;5.50;4.70;;;;;;;26.74;38.10;94960.44;6118966;28;111004;-59
2023/07/29 08:04:25;;;;;;;6.27;5.60;;;;;;;26.69;38.55;94952.59;6116527;28;109350;-61
2023/07/29 08:07:29;;;;;;;5.27;4.77;;;;;;;26.62;38.71;94963.09;6112041;28;110276;-61
2023/07/29 08:10:34;;;;;;;5.87;5.10;;;;;;;26.86;37.85;94956.94;6109454;28;110052;-65
2023/07/29 08:13:37;;;;;;;5.03;4.20;;;;;;;27.07;36.61;94957.59;6110594;28;109427;-64
2023/07/29 08:16:40;;;;;;;6.40;4.07;;;;;;;27.01;37.57;94958.16;6122517;28;109470;-63
2023/07/29 08:19:44;;;;;;;5.27;4.47;;;;;;;27.04;36.90;94958.25;6115276;28;109149;-63
2023/07/29 08:22:48;;;;;;;8.60;7.90;;;;;;;27.15;36.73;94955.88;6104355;28;109968;-62
2023/07/29 08:25:53;;;;;;;7.83;6.83;;;;;;;27.23;36.97;94954.97;6122471;28;109255;-62
2023/07/29 08:28:56;;;;;;;6.00;5.00;;;;;;;27.28;36.39;94957.44;6121726;28;109283;-63
2023/07/29 08:32:00;;;;;;;6.23;5.70;;;;;;;27.09;37.40;94958.03;6131556;28;109066;-64
2023/07/29 08:35:05;;;;;;;6.80;6.20;;;;;;;26.98;37.42;94950.78;6108834;28;109202;-63
2023/07/29 08:38:08;;;;;;;7.50;5.13;;;;;;;26.92;37.00;94954.81;6116203;28;109182;-63
2023/07/29 08:41:15;;;;;;;5.50;5.00;;;;;;;26.85;36.79;94945.41;6127169;28;110674;-64
2023/07/29 08:44:23;;;;;;;5.20;4.80;;;;;;;26.90;36.90;94943.66;6121157;28;109519;-63
2023/07/29 08:47:26;;;;;;;5.70;5.27;;;;;;;26.92;37.15;94941.41;6114844;28;109623;-63
2023/07/29 08:50:33;;;;;;;8.10;4.87;;;;;;;26.97;36.56;94941.16;6128394;28;109438;-63
2023/07/29 08:53:36;;;;;;;5.13;4.83;;;;;;;26.94;37.05;94931.88;6126189;28;110198;-64
2023/07/29 08:56:39;;;;;;;4.70;4.27;;;;;;;26.95;36.71;94936.13;6115610;28;109867;-64
2023/07/29 08:59:42;;;;;;;5.70;4.00;;;;;;;26.94;36.71;94923.03;6114309;28;109235;-63
2023/07/29 09:02:46;;;;;;;4.23;3.83;;;;;;;26.92;36.30;94927.97;6117378;28;110185;-64
2023/07/29 09:05:51;;;;;;;12.17;4.50;;;;;;;26.85;35.97;94923.94;6116737;28;109442;-63
2023/07/29 09:08:56;;;;;;;6.23;4.10;;;;;;;26.92;36.03;94927.97;6106253;28;109891;-64
2023/07/29 09:11:59;;;;;;;4.50;3.70;;;;;;;26.96;36.17;94920.78;6112841;28;109071;-62
2023/07/29 09:15:03;;;;;;;11.40;3.95;;;;;;;27.44;35.67;94922.56;6119048;28;109646;-63
2023/07/29 09:18:12;;;;;;;3.87;3.37;;;;;;;27.65;35.03;94917.75;6108859;28;109433;-66
2023/07/29 09:21:18;;;;;;;6.63;5.60;;;;;;;27.20;35.77;94918.03;6110150;28;110844;-69
2023/07/29 09:24:22;;;;;;;8.23;5.10;;;;;;;27.16;36.00;94911.78;6102533;28;109438;-69
2023/07/29 09:27:26;;;;;;;6.70;4.50;;;;;;;27.16;36.59;94901.03;6113750;28;109126;-68
2023/07/29 09:30:29;;;;;;;4.10;3.70;;;;;;;27.12;36.35;94905.53;6110705;28;109980;-69
2023/07/29 09:33:36;;;;;;;3.63;3.33;;;;;;;27.14;36.37;94900.59;6116884;28;110828;-70
2023/07/29 09:36:42;;;;;;;4.70;3.40;;;;;;;27.21;36.56;94903.47;6131215;28;109047;-69
2023/07/29 09:39:46;;;;;;;3.80;3.10;;;;;;;27.41;36.52;94896.38;6119111;28;109339;-69
2023/07/29 09:42:51;;;;;;;7.07;5.47;;;;;;;27.68;35.25;94905.50;6105147;28;110099;-69
2023/07/29 09:45:54;;;;;;;5.73;5.20;;;;;;;27.53;35.86;94898.97;6112224;28;109332;-70
2023/07/29 09:48:58;;;;;;;5.90;4.70;;;;;;;27.39;36.38;94896.72;6112200;28;109151;-70
2023/07/29 09:52:03;;;;;;;5.30;4.30;;;;;;;27.31;36.23;94896.84;6109678;28;110458;-67
2023/07/29 09:55:07;;;;;;;5.40;4.10;;;;;;;27.22;36.52;94886.25;6110373;28;109280;-70
2023/07/29 09:58:10;;;;;;;3.80;3.40;;;;;;;27.23;36.61;94884.34;6113159;28;109214;-70
2023/07/29 10:01:14;;;;;;;4.63;3.37;;;;;;;27.20;36.44;94876.94;6122685;28;110113;-70
2023/07/29 10:04:18;;;;;;;5.23;2.87;;;;;;;27.30;35.75;94877.25;6112631;28;109256;-70
2023/07/29 10:07:23;;;;;;;3.30;2.80;;;;;;;27.28;36.00;94879.50;6137565;28;109184;-70
2023/07/29 10:10:28;;;;;;;5.10;2.90;;;;;;;27.29;35.92;94873.03;6130749;28;109301;-70
2023/07/29 10:13:31;;;;;;;4.30;2.93;;;;;;;27.25;35.27;94874.03;6117422;28;109694;-70
2023/07/29 10:16:37;;;;;;;3.10;2.63;;;;;;;27.15;35.46;94873.38;6110017;28;109328;-70
2023/07/29 10:19:42;;;;;;;3.87;2.63;;;;;;;27.10;36.05;94865.56;6131371;28;110409;-71
2023/07/29 10:22:48;;;;;;;3.00;2.57;;;;;;;27.06;34.99;94864.69;6121950;28;109125;-69
2023/07/29 10:25:56;;;;;;;2.70;2.50;;;;;;;27.06;35.34;94855.88;6112748;28;109254;-70
2023/07/29 10:29:04;;;;;;;2.60;2.40;;;;;;;27.11;34.74;94850.22;6104005;28;110079;-71
2023/07/29 10:32:11;;;;;;;3.00;2.70;;;;;;;27.24;34.10;94840.22;6113342;28;109076;-71
2023/07/29 10:35:16;;;;;;;2.80;2.37;;;;;;;27.26;34.57;94841.47;6116537;28;108984;-70
2023/07/29 10:38:23;;;;;;;2.67;2.47;;;;;;;27.24;34.66;94837.53;6104638;28;109416;-71
2023/07/29 10:41:55;;;;;;;3.50;2.40;;;;;;;27.15;34.43;94832.31;6125579;28;109071;-71
2023/07/29 10:44:58;;;;;;;2.27;2.07;;;;;;;27.08;34.94;94829.44;6128047;28;109223;-70
2023/07/29 10:48:05;;;;;;;2.10;1.90;;;;;;;27.11;33.98;94828.75;6130774;28;109944;-70
2023/07/29 10:51:30;;;;;;;2.53;1.83;;;;;;;27.16;33.55;94823.91;6101703;28;108924;-66
2023/07/29 10:54:43;;;;;;;2.30;2.03;;;;;;;27.30;32.75;94810.09;6110844;28;109453;-66
2023/07/29 10:57:46;;;;;;;6.27;2.00;;;;;;;27.27;32.93;94816.16;6112748;28;109534;-71
2023/07/29 11:00:50;;;;;;;4.20;1.90;;;;;;;27.19;33.68;94814.34;6103457;28;109165;-62
2023/07/29 11:04:20;;;;;;;2.27;1.70;;;;;;;27.21;32.98;94822.06;6120944;28;110142;-71
2023/07/29 11:07:28;;;;;;;1.87;1.40;;;;;;;27.28;32.97;94806.97;6136761;28;109388;-70
2023/07/29 11:10:43;;;;;;;1.87;1.67;;;;;;;27.36;33.33;94808.69;6116585;28;109263;-70
2023/07/29 11:13:46;;;;;;;3.13;1.40;;;;;;;27.38;32.91;94802.97;6102499;28;109131;-70
2023/07/29 11:16:51;;;;;;;1.47;1.27;;;;;;;27.44;31.95;94804.28;6112466;28;109271;-69
2023/07/29 11:19:57;;;;;;;2.70;1.50;;;;;;;27.44;31.44;94805.06;6114683;28;110172;-67
2023/07/29 11:23:01;;;;;;;4.50;1.80;;;;;;;27.49;31.75;94795.19;6107156;28;109358;-65
2023/07/29 11:26:06;;;;;;;3.53;1.90;;;;;;;27.54;31.74;94798.38;6107008;28;109281;-67
2023/07/29 11:29:10;;;;;;;2.97;1.93;;;;;;;27.52;32.33;94791.81;6118848;28;109150;-67
2023/07/29 11:32:13;;;;;;;2.00;1.70;;;;;;;27.55;32.51;94804.53;6112335;28;110182;-67
2023/07/29 11:35:18;;;;;;;2.80;1.50;;;;;;;27.54;33.18;94789.53;6110950;28;108932;-65
2023/07/29 11:38:23;;;;;;;8.20;1.80;;;;;;;27.54;33.22;94797.59;6112470;28;110064;-66
2023/07/29 11:41:27;;;;;;;2.50;1.40;;;;;;;27.55;33.73;94785.72;6136201;28;109036;-67
2023/07/29 11:44:30;;;;;;;2.93;1.43;;;;;;;27.56;33.27;94790.00;6112017;28;110092;-66
2023/07/29 11:47:36;;;;;;;1.10;1.00;;;;;;;27.54;33.36;94786.84;6105698;28;111372;-67
2023/07/29 11:50:40;;;;;;;3.10;1.90;;;;;;;27.59;33.94;94781.25;6131963;28;109077;-67
2023/07/29 11:53:43;;;;;;;1.30;1.20;;;;;;;27.57;34.28;94778.13;6113645;28;109258;-67
2023/07/29 11:56:48;;;;;;;1.63;1.30;;;;;;;27.60;34.46;94777.41;6115619;28;109497;-68
2023/07/29 11:59:51;;;;;;;1.67;1.50;;;;;;;27.58;33.76;94780.47;6101998;28;109130;-68
2023/07/29 12:02:55;;;;;;;2.43;2.00;;;;;;;27.57;34.04;94770.06;6115950;28;110103;-68
2023/07/29 12:05:58;;;;;;;2.10;1.90;;;;;;;27.60;34.05;94772.03;6119901;28;110149;-67
2023/07/29 12:09:02;;;;;;;4.00;1.90;;;;;;;27.60;34.84;94767.44;6100667;28;109246;-68
2023/07/29 12:12:08;;;;;;;2.00;1.80;;;;;;;27.61;35.01;94765.53;6113912;28;109144;-67
2023/07/29 12:15:11;;;;;;;5.60;1.40;;;;;;;27.49;35.73;94752.97;6115530;28;109152;-69
2023/07/29 12:18:14;;;;;;;5.57;1.80;;;;;;;27.45;35.91;94750.19;6115066;28;109764;-68
2023/07/29 12:21:19;;;;;;;4.90;1.97;;;;;;;27.38;35.36;94751.91;6113620;28;111359;-70
2023/07/29 12:24:23;;;;;;;4.23;1.73;;;;;;;27.38;34.70;94746.53;6120605;28;109314;-68
2023/07/29 12:27:28;;;;;;;1.80;1.20;;;;;;;27.39;34.61;94740.84;6118748;28;109163;-67
2023/07/29 12:30:31;;;;;;;1.90;1.80;;;;;;;27.45;33.65;94742.13;6130545;28;110112;-68
2023/07/29 12:33:35;;;;;;;1.37;1.27;;;;;;;27.51;33.33;94739.16;6115907;28;109015;-68
2023/07/29 12:36:43;;;;;;;1.40;1.20;;;;;;;27.46;33.75;94732.94;6123477;28;108829;-67
2023/07/29 12:39:46;;;;;;;2.07;1.60;;;;;;;27.45;33.95;94736.75;6123896;28;109551;-67
2023/07/29 12:42:51;;;;;;;1.77;1.20;;;;;;;27.48;33.65;94734.50;6113322;28;109159;-67
2023/07/29 12:45:54;;;;;;;1.40;1.30;;;;;;;27.49;32.92;94741.44;6110623;28;109446;-70
2023/07/29 12:48:58;;;;;;;2.07;1.43;;;;;;;27.50;32.72;94740.31;6116248;28;109226;-67
2023/07/29 12:52:01;;;;;;;1.83;1.63;;;;;;;27.50;32.52;94741.06;6126069;28;109474;-65
2023/07/29 12:55:05;;;;;;;1.70;1.40;;;;;;;27.55;32.87;94740.03;6103473;28;109865;-65
2023/07/29 12:58:09;;;;;;;1.57;1.37;;;;;;;27.60;32.74;94737.09;6114843;28;109277;-65
2023/07/29 13:01:16;;;;;;;2.30;1.90;;;;;;;27.67;31.71;94731.88;6114636;28;109182;-65
2023/07/29 13:04:19;;;;;;;2.17;1.30;;;;;;;27.75;30.85;94734.38;6119778;28;109336;-66
2023/07/29 13:07:22;;;;;;;1.40;1.30;;;;;;;27.74;29.78;94738.22;6104719;28;110075;-66
2023/07/29 13:10:26;;;;;;;1.97;1.47;;;;;;;27.79;29.81;94733.69;6115669;28;109133;-68
2023/07/29 13:13:30;;;;;;;2.87;1.30;;;;;;;27.83;29.81;94732.63;6116211;28;109447;-68
2023/07/29 13:16:33;;;;;;;1.77;1.37;;;;;;;27.86;30.22;94734.63;6125313;28;109263;-67
2023/07/29 13:19:37;;;;;;;3.00;1.57;;;;;;;27.78;30.49;94738.28;6113186;28;109093;-67
2023/07/29 13:22:40;;;;;;;2.87;1.40;;;;;;;27.79;31.78;94734.47;6118450;28;109245;-68
2023/07/29 13:25:44;;;;;;;2.63;2.17;;;;;;;27.81;30.98;94737.59;6116889;28;109180;-68
2023/07/29 13:28:48;;;;;;;2.60;2.40;;;;;;;27.72;31.61;94729.72;6103691;28;109294;-66
2023/07/29 13:31:51;;;;;;;2.10;1.90;;;;;;;27.72;31.75;94735.09;6115090;28;109950;-67
2023/07/29 13:34:54;;;;;;;2.80;1.83;;;;;;;27.71;32.65;94732.72;6115991;28;109034;-66
2023/07/29 13:37:57;;;;;;;3.07;2.33;;;;;;;27.76;32.12;94721.72;6115084;28;109147;-70
2023/07/29 13:41:00;;;;;;;2.77;2.43;;;;;;;27.73;32.06;94717.06;6104448;28;109654;-69
2023/07/29 13:44:05;;;;;;;2.27;2.07;;;;;;;27.71;31.84;94720.06;6114620;28;109094;-67
2023/07/29 13:47:08;;;;;;;3.53;2.43;;;;;;;27.70;31.45;94717.72;6133876;28;109310;-66
2023/07/29 13:50:11;;;;;;;2.43;2.07;;;;;;;27.65;30.67;94708.03;6129284;28;109195;-66
2023/07/29 13:53:14;;;;;;;3.50;2.17;;;;;;;27.72;30.41;94712.78;6102188;28;111378;-66
2023/07/29 13:56:18;;;;;;;2.87;2.20;;;;;;;27.72;30.13;94708.19;6121514;28;109655;-69
2023/07/29 13:59:22;;;;;;;2.87;2.20;;;;;;;27.70;29.70;94704.28;6113203;28;109286;-68
2023/07/29 14:02:26;;;;;;;2.27;2.07;;;;;;;27.71;29.54;94705.84;6107679;28;109163;-64
2023/07/29 14:05:29;;;;;;;2.50;2.30;;;;;;;27.69;30.20;94691.97;6111205;28;109354;-60
2023/07/29 14:08:32;;;;;;;3.80;2.60;;;;;;;27.67;30.61;94696.91;6113140;28;109109;-62
2023/07/29 14:11:35;;;;;;;3.07;2.47;;;;;;;27.63;30.38;94690.69;6106402;28;109130;-62
2023/07/29 14:14:42;;;;;;;2.60;2.20;;;;;;;27.64;30.07;94690.34;6106171;28;110132;-62